Home   Weather   Australia   Katherine   Past weeks
Flag for Australia

Past Weather in Katherine, Northern Territory, Australia — Yesterday and Last 2 Weeks

Currently: 55 °F. Clear. (Weather station: Katherine Aerodrome, Australia). See more current weather

Past Weather in Katherine — Graph

°F

Katherine Temperature Yesterday

Maximum temperature yesterday: 82 °F (at 2:00 pm)
Minimum temperature yesterday: 59 °F (at 7:00 am)
Average temperature yesterday: 70 °F

High & Low Weather Summary for the Past Weeks

 TemperatureHumidityPressure
High93 °F (May 10, 2:00 pm)94% (May 10, 4:30 am)30.04 "Hg (May 10, 4:30 am)
Low57 °F (May 21, 2:30 am)17% (May 20, 3:30 pm)29.83 "Hg (May 7, 3:30 pm)
Average77 °F60%29.94 "Hg
* Reported May 6 2:30 am — May 21 3:00 am, Katherine. Weather by CustomWeather, © 2024

Note: Actual official high and low records may vary slightly from our data, if they occured in-between our weather recording intervals... More about our weather records

Katherine Weather History for the Previous 24 Hours

Scroll right to see more
 ConditionsComfort  
Time TempWeatherWind HumidityBarometerVisibility
3:00 am
Tue, May 21
57 °FClear.7 mph63%30.01 "HgN/A
2:30 am57 °FClear.7 mph63%30.01 "HgN/A
1:30 am61 °FClear.8 mph55%30.01 "HgN/A
1:00 am61 °FClear.8 mph52%30.04 "HgN/A
12:30 am64 °FClear.10 mph46%30.04 "HgN/A
12:00 am61 °FClear.8 mph52%30.01 "HgN/A
11:30 pm
Mon, May 20
61 °FClear.8 mph52%30.01 "HgN/A
11:00 pm63 °FClear.8 mph49%30.01 "HgN/A
10:30 pm61 °FClear.8 mph52%30.01 "HgN/A
9:30 pm63 °FClear.5 mph49%30.01 "HgN/A
8:30 pm64 °FClear.5 mph46%30.01 "Hg10 mi
8:00 pm66 °FClear.5 mph40%30.01 "Hg10 mi
7:30 pm70 °FClear.6 mph35%29.98 "Hg10 mi
7:00 pm70 °FClear.7 mph33%29.98 "Hg10 mi
6:30 pm73 °FSunny.8 mph27%29.95 "Hg10 mi
6:00 pm77 °FSunny.10 mph22%29.95 "Hg10 mi
5:30 pm79 °FSunny.14 mph21%29.92 "Hg10 mi
4:30 pm81 °FSunny.13 mph20%29.92 "HgN/A
4:00 pm82 °FSunny.13 mph17%29.92 "Hg10 mi
3:30 pm82 °FSunny.14 mph17%29.92 "Hg10 mi
2:30 pm81 °FSunny.15 mph20%29.92 "Hg10 mi
2:00 pm82 °FSunny.15 mph20%29.95 "Hg10 mi
1:30 pm81 °FSunny.16 mph21%29.95 "Hg10 mi
1:00 pm81 °FPleasantly warm.16 mph23%29.95 "HgN/A
12:30 pm81 °FSunny.17 mph23%29.98 "Hg10 mi
12:00 pm79 °FPleasantly warm.16 mph24%30.01 "HgN/A
11:00 am75 °FSunny.20 mph27%30.04 "Hg10 mi
10:46 am75 °FSunny.17 mph25%30.04 "Hg10 mi
10:00 am73 °FSunny.17 mph27%30.04 "HgN/A
9:30 am72 °FSunny.21 mph27%30.04 "HgN/A
9:24 am72 °FSunny.17 mph29%30.04 "HgN/A
9:00 am70 °FSunny.14 mph33%30.04 "HgN/A
8:30 am66 °FSunny.10 mph43%30.04 "HgN/A
8:00 am64 °FSunny.9 mph49%30.01 "HgN/A
7:30 am61 °FSunny.7 mph63%30.01 "HgN/A
7:00 am59 °FClear.8 mph68%29.98 "HgN/A
6:30 am61 °FClear.8 mph63%29.98 "HgN/A
6:00 am61 °FClear.8 mph63%29.98 "HgN/A
5:30 am63 °FClear.8 mph59%29.95 "HgN/A
5:00 am63 °FClear.9 mph64%29.95 "HgN/A
4:30 am64 °FClear.10 mph56%29.95 "HgN/A
4:00 am64 °FClear.12 mph60%29.95 "HgN/A
Weather by CustomWeather, © 2024

See weather overview